NCAR-RAP Real-Time Weather Data

Output produced by METARs form (01 October 2022  04:10 UTC)
found at http://weather.rap.ucar.edu/surface/
 
Conditions at: KPZQ observed 01 October 2022  03:55 UTC
Temperature: 7.0°C (45°F)
Dewpoint: 5.8°C (42°F) [RH = 92%]
Pressure (altimeter): 30.26 inches Hg (1024.8 mb)
Winds: calm
Visibility: 10 or more miles (16+ km)
Ceiling: at least 12,000 feet AGL
Clouds: sky clear below 12,000 feet AGL
Present Weather: automated observation with no human augmentation;
there may or may not be significant weather present at this time
KPZQ 010355Z AUTO 00000KT 10SM CLR 07/06 A3026 RMK AO2 T00700058 401800050

Conditions at: KPZQ observed 01 October 2022  03:35 UTC
Temperature: 5.6°C (42°F)
Dewpoint: 4.7°C (40°F) [RH = 94%]
Pressure (altimeter): 30.26 inches Hg (1024.8 mb)
Winds: from the S (170 degrees) at 5 MPH (4 knots; 2.1 m/s)
Visibility: 10 or more miles (16+ km)
Ceiling: at least 12,000 feet AGL
Clouds: sky clear below 12,000 feet AGL
Present Weather: automated observation with no human augmentation;
there may or may not be significant weather present at this time
KPZQ 010335Z AUTO 17004KT 10SM CLR 06/05 A3026 RMK AO2 T00560047

Conditions at: KPZQ observed 01 October 2022  03:15 UTC
Temperature: 5.6°C (42°F)
Dewpoint: 4.6°C (40°F) [RH = 93%]
Pressure (altimeter): 30.25 inches Hg (1024.5 mb)
Winds: calm
Visibility: 10 or more miles (16+ km)
Ceiling: at least 12,000 feet AGL
Clouds: sky clear below 12,000 feet AGL
Present Weather: automated observation with no human augmentation;
there may or may not be significant weather present at this time
KPZQ 010315Z AUTO 00000KT 10SM CLR 06/05 A3025 RMK AO2 T00560046

Conditions at: KPZQ observed 01 October 2022  02:55 UTC
Temperature: 5.8°C (42°F)
Dewpoint: 4.7°C (40°F) [RH = 93%]
Pressure (altimeter): 30.25 inches Hg (1024.5 mb)
Winds: from the SSW (200 degrees) at 3 MPH (3 knots; 1.6 m/s)
Visibility: 10 or more miles (16+ km)
Ceiling: at least 12,000 feet AGL
Clouds: sky clear below 12,000 feet AGL
Present Weather: automated observation with no human augmentation;
there may or may not be significant weather present at this time
KPZQ 010255Z AUTO 20003KT 10SM CLR 06/05 A3025 RMK AO2 T00580047

Conditions at: KPZQ observed 01 October 2022  02:35 UTC
Temperature: 5.3°C (42°F)
Dewpoint: 4.1°C (39°F) [RH = 92%]
Pressure (altimeter): 30.25 inches Hg (1024.5 mb)
Winds: from the S (180 degrees) at 3 MPH (3 knots; 1.6 m/s)
Visibility: 10 or more miles (16+ km)
Ceiling: at least 12,000 feet AGL
Clouds: sky clear below 12,000 feet AGL
Present Weather: automated observation with no human augmentation;
there may or may not be significant weather present at this time
KPZQ 010235Z AUTO 18003KT 10SM CLR 05/04 A3025 RMK AO2 T00530041

Conditions at: KPZQ observed 01 October 2022  02:15 UTC
Temperature: 6.0°C (43°F)
Dewpoint: 4.8°C (41°F) [RH = 92%]
Pressure (altimeter): 30.25 inches Hg (1024.5 mb)
Winds: calm
Visibility: 10 or more miles (16+ km)
Ceiling: at least 12,000 feet AGL
Clouds: sky clear below 12,000 feet AGL
Present Weather: automated observation with no human augmentation;
there may or may not be significant weather present at this time
KPZQ 010215Z AUTO 00000KT 10SM CLR 06/05 A3025 RMK AO2 T00600048

Conditions at: KPZQ observed 01 October 2022  01:55 UTC
Temperature: 5.8°C (42°F)
Dewpoint: 4.4°C (40°F) [RH = 91%]
Pressure (altimeter): 30.25 inches Hg (1024.5 mb)
Winds: from the S (180 degrees) at 3 MPH (3 knots; 1.6 m/s)
Visibility: 10 or more miles (16+ km)
Ceiling: at least 12,000 feet AGL
Clouds: sky clear below 12,000 feet AGL
Present Weather: automated observation with no human augmentation;
there may or may not be significant weather present at this time
KPZQ 010155Z AUTO 18003KT 10SM CLR 06/04 A3025 RMK AO2 T00580044

Conditions at: KPZQ observed 01 October 2022  01:35 UTC
Temperature: 6.2°C (43°F)
Dewpoint: 4.9°C (41°F) [RH = 91%]
Pressure (altimeter): 30.25 inches Hg (1024.5 mb)
Winds: calm
Visibility: 10 or more miles (16+ km)
Ceiling: at least 12,000 feet AGL
Clouds: sky clear below 12,000 feet AGL
Present Weather: automated observation with no human augmentation;
there may or may not be significant weather present at this time
KPZQ 010135Z AUTO 00000KT 10SM CLR 06/05 A3025 RMK AO2 T00620049

Conditions at: KPZQ observed 01 October 2022  01:15 UTC
Temperature: 7.1°C (45°F)
Dewpoint: 5.5°C (42°F) [RH = 90%]
Pressure (altimeter): 30.25 inches Hg (1024.5 mb)
Winds: calm
Visibility: 10 or more miles (16+ km)
Ceiling: at least 12,000 feet AGL
Clouds: sky clear below 12,000 feet AGL
Present Weather: automated observation with no human augmentation;
there may or may not be significant weather present at this time
KPZQ 010115Z AUTO 00000KT 10SM CLR 07/06 A3025 RMK AO2 T00710055

Conditions at: KPZQ observed 01 October 2022  00:55 UTC
Temperature: 7.3°C (45°F)
Dewpoint: 5.7°C (42°F) [RH = 90%]
Pressure (altimeter): 30.25 inches Hg (1024.5 mb)
Winds: calm
Visibility: 10 or more miles (16+ km)
Ceiling: at least 12,000 feet AGL
Clouds: sky clear below 12,000 feet AGL
Present Weather: automated observation with no human augmentation;
there may or may not be significant weather present at this time
KPZQ 010055Z AUTO 00000KT 10SM CLR 07/06 A3025 RMK AO2 T00730057

Conditions at: KPZQ observed 01 October 2022  00:35 UTC
Temperature: 7.9°C (46°F)
Dewpoint: 5.9°C (43°F) [RH = 87%]
Pressure (altimeter): 30.25 inches Hg (1024.5 mb)
Winds: calm
Visibility: 10 or more miles (16+ km)
Ceiling: at least 12,000 feet AGL
Clouds: sky clear below 12,000 feet AGL
Present Weather: automated observation with no human augmentation;
there may or may not be significant weather present at this time
KPZQ 010035Z AUTO 00000KT 10SM CLR 08/06 A3025 RMK AO2 T00790059

Conditions at: KPZQ observed 01 October 2022  00:15 UTC
Temperature: 8.8°C (48°F)
Dewpoint: 6.3°C (43°F) [RH = 84%]
Pressure (altimeter): 30.25 inches Hg (1024.5 mb)
Winds: calm
Visibility: 10 or more miles (16+ km)
Ceiling: at least 12,000 feet AGL
Clouds: sky clear below 12,000 feet AGL
Present Weather: automated observation with no human augmentation;
there may or may not be significant weather present at this time
KPZQ 010015Z AUTO 00000KT 10SM CLR 09/06 A3025 RMK AO2 T00880063

Conditions at: KPZQ observed 30 September 2022  23:55 UTC
Temperature: 9.3°C (49°F)
Dewpoint: 6.5°C (44°F) [RH = 83%]
Pressure (altimeter): 30.25 inches Hg (1024.5 mb)
Winds: calm
Visibility: 10 or more miles (16+ km)
Ceiling: at least 12,000 feet AGL
Clouds: sky clear below 12,000 feet AGL
Present Weather: automated observation with no human augmentation;
there may or may not be significant weather present at this time
KPZQ 302355Z AUTO 00000KT 10SM CLR 09/07 A3025 RMK AO2 T00930065 10169 20093

Conditions at: KPZQ observed 30 September 2022  23:35 UTC
Temperature: 10.6°C (51°F)
Dewpoint: 7.4°C (45°F) [RH = 81%]
Pressure (altimeter): 30.25 inches Hg (1024.5 mb)
Winds: calm
Visibility: 10 or more miles (16+ km)
Ceiling: at least 12,000 feet AGL
Clouds: sky clear below 12,000 feet AGL
Present Weather: automated observation with no human augmentation;
there may or may not be significant weather present at this time
KPZQ 302335Z AUTO 00000KT 10SM CLR 11/07 A3025 RMK AO2 T01060074

Conditions at: KPZQ observed 30 September 2022  23:15 UTC
Temperature: 13.2°C (56°F)
Dewpoint: 8.2°C (47°F) [RH = 72%]
Pressure (altimeter): 30.25 inches Hg (1024.5 mb)
Winds: from the SE (130 degrees) at 3 MPH (3 knots; 1.6 m/s)
Visibility: 10 or more miles (16+ km)
Ceiling: at least 12,000 feet AGL
Clouds: sky clear below 12,000 feet AGL
Present Weather: automated observation with no human augmentation;
there may or may not be significant weather present at this time
KPZQ 302315Z AUTO 13003KT 10SM CLR 13/08 A3025 RMK AO2 T01320082

Conditions at: KPZQ observed 30 September 2022  22:55 UTC
Temperature: 14.6°C (58°F)
Dewpoint: 8.0°C (46°F) [RH = 65%]
Pressure (altimeter): 30.25 inches Hg (1024.5 mb)
Winds: from the E (100 degrees) at 3 MPH (3 knots; 1.6 m/s)
Visibility: 10 or more miles (16+ km)
Ceiling: at least 12,000 feet AGL
Clouds: sky clear below 12,000 feet AGL
Present Weather: automated observation with no human augmentation;
there may or may not be significant weather present at this time
KPZQ 302255Z AUTO 10003KT 10SM CLR 15/08 A3025 RMK AO2 T01460080

Conditions at: KPZQ observed 30 September 2022  22:35 UTC
Temperature: 15.3°C (60°F)
Dewpoint: 8.2°C (47°F) [RH = 63%]
Pressure (altimeter): 30.26 inches Hg (1024.8 mb)
Winds: from the ESE (110 degrees) at 6 MPH (5 knots; 2.6 m/s)
Visibility: 10 or more miles (16+ km)
Ceiling: at least 12,000 feet AGL
Clouds: sky clear below 12,000 feet AGL
Present Weather: automated observation with no human augmentation;
there may or may not be significant weather present at this time
KPZQ 302235Z AUTO 11005KT 10SM CLR 15/08 A3026 RMK AO2 T01530082

Conditions at: KPZQ observed 30 September 2022  22:15 UTC
Temperature: 15.8°C (60°F)
Dewpoint: 8.3°C (47°F) [RH = 61%]
Pressure (altimeter): 30.26 inches Hg (1024.8 mb)
Winds: from the E (100 degrees) at 7 MPH (6 knots; 3.1 m/s)
Visibility: 10 or more miles (16+ km)
Ceiling: at least 12,000 feet AGL
Clouds: sky clear below 12,000 feet AGL
Present Weather: automated observation with no human augmentation;
there may or may not be significant weather present at this time
KPZQ 302215Z AUTO 10006KT 10SM CLR 16/08 A3026 RMK AO2 T01580083

Conditions at: KPZQ observed 30 September 2022  21:55 UTC
Temperature: 16.0°C (61°F)
Dewpoint: 8.9°C (48°F) [RH = 63%]
Pressure (altimeter): 30.26 inches Hg (1024.8 mb)
Winds: from the ESE (110 degrees) at 5 MPH (4 knots; 2.1 m/s)
Visibility: 10 or more miles (16+ km)
Ceiling: at least 12,000 feet AGL
Clouds: sky clear below 12,000 feet AGL
Present Weather: automated observation with no human augmentation;
there may or may not be significant weather present at this time
KPZQ 302155Z AUTO 11004KT 10SM CLR 16/09 A3026 RMK AO2 T01600089

Conditions at: KPZQ observed 30 September 2022  21:35 UTC
Temperature: 16.0°C (61°F)
Dewpoint: 8.8°C (48°F) [RH = 62%]
Pressure (altimeter): 30.27 inches Hg (1025.1 mb)
Winds: from the E (80 degrees) at 7 MPH (6 knots; 3.1 m/s)
Visibility: 10 or more miles (16+ km)
Ceiling: at least 12,000 feet AGL
Clouds: sky clear below 12,000 feet AGL
Present Weather: automated observation with no human augmentation;
there may or may not be significant weather present at this time
KPZQ 302135Z AUTO 08006KT 10SM CLR 16/09 A3027 RMK AO2 T01600088

Conditions at: KPZQ observed 30 September 2022  21:15 UTC
Temperature: 16.1°C (61°F)
Dewpoint: 8.7°C (48°F) [RH = 61%]
Pressure (altimeter): 30.27 inches Hg (1025.1 mb)
Winds: from the E (90 degrees) at 6 MPH (5 knots; 2.6 m/s)
Visibility: 10 or more miles (16+ km)
Ceiling: at least 12,000 feet AGL
Clouds: sky clear below 12,000 feet AGL
Present Weather: automated observation with no human augmentation;
there may or may not be significant weather present at this time
KPZQ 302115Z AUTO 09005KT 10SM CLR 16/09 A3027 RMK AO2 T01610087

Conditions at: KPZQ observed 30 September 2022  20:55 UTC
Temperature: 16.3°C (61°F)
Dewpoint: 8.7°C (48°F) [RH = 61%]
Pressure (altimeter): 30.28 inches Hg (1025.5 mb)
Winds: from the ENE (70 degrees) at 7 MPH (6 knots; 3.1 m/s)
Visibility: 10 or more miles (16+ km)
Ceiling: at least 12,000 feet AGL
Clouds: sky clear below 12,000 feet AGL
Present Weather: automated observation with no human augmentation;
there may or may not be significant weather present at this time
KPZQ 302055Z AUTO 07006KT 10SM CLR 16/09 A3028 RMK AO2 T01630087

Conditions at: KPZQ observed 30 September 2022  20:35 UTC
Temperature: 16.3°C (61°F)
Dewpoint: 8.4°C (47°F) [RH = 59%]
Pressure (altimeter): 30.28 inches Hg (1025.5 mb)
Winds: from the ENE (60 degrees) at 7 MPH (6 knots; 3.1 m/s)
Visibility: 7 miles (11 km)
Ceiling: at least 12,000 feet AGL
Clouds: sky clear below 12,000 feet AGL
Present Weather: automated observation with no human augmentation;
there may or may not be significant weather present at this time
KPZQ 302035Z AUTO 06006KT 7SM CLR 16/08 A3028 RMK AO2 T01630084

Conditions at: KPZQ observed 30 September 2022  20:15 UTC
Temperature: 16.4°C (62°F)
Dewpoint: 8.1°C (47°F) [RH = 58%]
Pressure (altimeter): 30.29 inches Hg (1025.8 mb)
Winds: from the ENE (60 degrees) at 7 MPH (6 knots; 3.1 m/s)
Visibility: 10 or more miles (16+ km)
Ceiling: at least 12,000 feet AGL
Clouds: sky clear below 12,000 feet AGL
Present Weather: automated observation with no human augmentation;
there may or may not be significant weather present at this time
KPZQ 302015Z AUTO 06006KT 10SM CLR 16/08 A3029 RMK AO2 T01640081

Conditions at: KPZQ observed 30 September 2022  19:55 UTC
Temperature: 16.6°C (62°F)
Dewpoint: 8.6°C (47°F) [RH = 59%]
Pressure (altimeter): 30.29 inches Hg (1025.8 mb)
Winds: from the E (100 degrees) at 6 MPH (5 knots; 2.6 m/s)
Visibility: 10 or more miles (16+ km)
Ceiling: at least 12,000 feet AGL
Clouds: sky clear below 12,000 feet AGL
Present Weather: automated observation with no human augmentation;
there may or may not be significant weather present at this time
KPZQ 301955Z AUTO 10005KT 10SM CLR 17/09 A3029 RMK AO2 T01660086

Conditions at: KPZQ observed 30 September 2022  19:35 UTC
Temperature: 16.3°C (61°F)
Dewpoint: 8.1°C (47°F) [RH = 58%]
Pressure (altimeter): 30.30 inches Hg (1026.2 mb)
Winds: from the ENE (60 degrees) at 6 MPH (5 knots; 2.6 m/s)
Visibility: 10 or more miles (16+ km)
Ceiling: at least 12,000 feet AGL
Clouds: sky clear below 12,000 feet AGL
Present Weather: automated observation with no human augmentation;
there may or may not be significant weather present at this time
KPZQ 301935Z AUTO 06005KT 10SM CLR 16/08 A3030 RMK AO2 T01630081

Conditions at: KPZQ observed 30 September 2022  19:15 UTC
Temperature: 16.6°C (62°F)
Dewpoint: 8.2°C (47°F) [RH = 58%]
Pressure (altimeter): 30.30 inches Hg (1026.2 mb)
Winds: from the NE (50 degrees) at 6 MPH (5 knots; 2.6 m/s)
Visibility: 5 miles (8 km)
Ceiling: at least 12,000 feet AGL
Clouds: sky clear below 12,000 feet AGL
Present Weather: HZ  (haze)
KPZQ 301915Z AUTO 05005KT 5SM HZ CLR 17/08 A3030 RMK AO2 T01660082

Conditions at: KPZQ observed 30 September 2022  18:55 UTC
Temperature: 16.5°C (62°F)
Dewpoint: 8.3°C (47°F) [RH = 58%]
Pressure (altimeter): 30.31 inches Hg (1026.5 mb)
Winds: from the NE (40 degrees) at 6 MPH (5 knots; 2.6 m/s)
Visibility: 7 miles (11 km)
Ceiling: at least 12,000 feet AGL
Clouds: sky clear below 12,000 feet AGL
Present Weather: automated observation with no human augmentation;
there may or may not be significant weather present at this time
KPZQ 301855Z AUTO 04005KT 7SM CLR 17/08 A3031 RMK AO2 T01650083

Conditions at: KPZQ observed 30 September 2022  18:35 UTC
Temperature: 16.6°C (62°F)
Dewpoint: 8.3°C (47°F) [RH = 58%]
Pressure (altimeter): 30.32 inches Hg (1026.8 mb)
Winds: from the NE (50 degrees) at 6 MPH (5 knots; 2.6 m/s)
Visibility: 7 miles (11 km)
Ceiling: at least 12,000 feet AGL
Clouds: scattered clouds at 100 feet AGL
Present Weather: automated observation with no human augmentation;
there may or may not be significant weather present at this time
KPZQ 301835Z AUTO 05005KT 7SM SCT001 17/08 A3032 RMK AO2 T01660083

Conditions at: KPZQ observed 30 September 2022  18:15 UTC
Temperature: 16.6°C (62°F)
Dewpoint: 8.6°C (47°F) [RH = 59%]
Pressure (altimeter): 30.32 inches Hg (1026.8 mb)
Winds: from the N (10 degrees) at 8 MPH (7 knots; 3.6 m/s)
Visibility: 7 miles (11 km)
Ceiling: at least 12,000 feet AGL
Clouds: scattered clouds at 100 feet AGL
Present Weather: automated observation with no human augmentation;
there may or may not be significant weather present at this time
KPZQ 301815Z AUTO 01007KT 7SM SCT001 17/09 A3032 RMK AO2 T01660086

Conditions at: KPZQ observed 30 September 2022  17:55 UTC
Temperature: 17.1°C (63°F)
Dewpoint: 8.5°C (47°F) [RH = 57%]
Pressure (altimeter): 30.32 inches Hg (1026.8 mb)
Winds: from the NNE (30 degrees) at 7 MPH (6 knots; 3.1 m/s)
Visibility: 5 miles (8 km)
Ceiling: at least 12,000 feet AGL
Clouds: scattered clouds at 100 feet AGL
Present Weather: HZ  (haze)
KPZQ 301755Z AUTO 03006KT 5SM HZ SCT001 17/09 A3032 RMK AO2 T01710085 10180 20058

Conditions at: KPZQ observed 30 September 2022  17:35 UTC
Temperature: 17.2°C (63°F)
Dewpoint: 7.5°C (46°F) [RH = 53%]
Pressure (altimeter): 30.33 inches Hg (1027.2 mb)
Winds: from the NNE (20 degrees) at 6 MPH (5 knots; 2.6 m/s)
Visibility: 4 miles (6 km)
Ceiling: at least 12,000 feet AGL
Clouds: scattered clouds at 100 feet AGL
Present Weather: HZ  (haze)
KPZQ 301735Z AUTO 02005KT 4SM HZ SCT001 17/08 A3033 RMK AO2 T01720075

Conditions at: KPZQ observed 30 September 2022  17:15 UTC
Temperature: 17.4°C (63°F)
Dewpoint: 7.4°C (45°F) [RH = 52%]
Pressure (altimeter): 30.33 inches Hg (1027.2 mb)
Winds: from the NNE (20 degrees) at 6 MPH (5 knots; 2.6 m/s)
Visibility: 4 miles (6 km)
Ceiling: at least 12,000 feet AGL
Clouds: scattered clouds at 100 feet AGL
Present Weather: HZ  (haze)
KPZQ 301715Z AUTO 02005KT 4SM HZ SCT001 17/07 A3033 RMK AO2 T01740074

Conditions at: KPZQ observed 30 September 2022  16:55 UTC
Temperature: 17.1°C (63°F)
Dewpoint: 6.6°C (44°F) [RH = 50%]
Pressure (altimeter): 30.34 inches Hg (1027.5 mb)
Winds: from the N (10 degrees) at 3 MPH (3 knots; 1.6 m/s)
Visibility: 7 miles (11 km)
Ceiling: at least 12,000 feet AGL
Clouds: scattered clouds at 100 feet AGL
Present Weather: automated observation with no human augmentation;
there may or may not be significant weather present at this time
KPZQ 301655Z AUTO 01003KT 7SM SCT001 17/07 A3034 RMK AO2 T01710066

Conditions at: KPZQ observed 30 September 2022  16:35 UTC
Temperature: 17.5°C (64°F)
Dewpoint: 5.8°C (42°F) [RH = 46%]
Pressure (altimeter): 30.35 inches Hg (1027.9 mb)
Winds: calm
Visibility: 10 or more miles (16+ km)
Ceiling: at least 12,000 feet AGL
Clouds: sky clear below 12,000 feet AGL
Present Weather: automated observation with no human augmentation;
there may or may not be significant weather present at this time
KPZQ 301635Z AUTO 00000KT 10SM CLR 18/06 A3035 RMK AO2 T01750058

Conditions at: KPZQ observed 30 September 2022  16:15 UTC
Temperature: 17.7°C (64°F)
Dewpoint: 6.4°C (44°F) [RH = 47%]
Pressure (altimeter): 30.35 inches Hg (1027.9 mb)
Winds: calm
Visibility: 10 or more miles (16+ km)
Ceiling: at least 12,000 feet AGL
Clouds: sky clear below 12,000 feet AGL
Present Weather: automated observation with no human augmentation;
there may or may not be significant weather present at this time
KPZQ 301615Z AUTO 00000KT 10SM CLR 18/06 A3035 RMK AO2 T01770064

Conditions at: KPZQ observed 30 September 2022  15:55 UTC
Temperature: 17.0°C (63°F)
Dewpoint: 6.3°C (43°F) [RH = 49%]
Pressure (altimeter): 30.36 inches Hg (1028.2 mb)
Winds: from the SW (230 degrees) at 3 MPH (3 knots; 1.6 m/s)
Visibility: 10 or more miles (16+ km)
Ceiling: at least 12,000 feet AGL
Clouds: sky clear below 12,000 feet AGL
Present Weather: automated observation with no human augmentation;
there may or may not be significant weather present at this time
KPZQ 301555Z AUTO 23003KT 10SM CLR 17/06 A3036 RMK AO2 T01700063

Conditions at: KPZQ observed 30 September 2022  15:35 UTC
Temperature: 16.7°C (62°F)
Dewpoint: 6.5°C (44°F) [RH = 51%]
Pressure (altimeter): 30.37 inches Hg (1028.5 mb)
Winds: calm
Visibility: 10 or more miles (16+ km)
Ceiling: at least 12,000 feet AGL
Clouds: sky clear below 12,000 feet AGL
Present Weather: automated observation with no human augmentation;
there may or may not be significant weather present at this time
KPZQ 301535Z AUTO 00000KT 10SM CLR 17/07 A3037 RMK AO2 T01670065

Conditions at: KPZQ observed 30 September 2022  15:15 UTC
Temperature: 16.6°C (62°F)
Dewpoint: 6.6°C (44°F) [RH = 52%]
Pressure (altimeter): 30.37 inches Hg (1028.5 mb)
Winds: from the SW (230 degrees) at 5 MPH (4 knots; 2.1 m/s)
Visibility: 10 or more miles (16+ km)
Ceiling: at least 12,000 feet AGL
Clouds: sky clear below 12,000 feet AGL
Present Weather: automated observation with no human augmentation;
there may or may not be significant weather present at this time
KPZQ 301515Z AUTO 23004KT 10SM CLR 17/07 A3037 RMK AO2 T01660066

Conditions at: KPZQ observed 30 September 2022  14:55 UTC
Temperature: 16.0°C (61°F)
Dewpoint: 7.1°C (45°F) [RH = 55%]
Pressure (altimeter): 30.38 inches Hg (1028.9 mb)
Winds: from the W (260 degrees) at 5 MPH (4 knots; 2.1 m/s)
Visibility: 10 or more miles (16+ km)
Ceiling: at least 12,000 feet AGL
Clouds: sky clear below 12,000 feet AGL
Present Weather: automated observation with no human augmentation;
there may or may not be significant weather present at this time
KPZQ 301455Z AUTO 26004KT 10SM CLR 16/07 A3038 RMK AO2 T01600071

Conditions at: KPZQ observed 30 September 2022  14:35 UTC
Temperature: 14.7°C (58°F)
Dewpoint: 7.4°C (45°F) [RH = 62%]
Pressure (altimeter): 30.38 inches Hg (1028.9 mb)
Winds: from the SW (220 degrees) at 5 MPH (4 knots; 2.1 m/s)
Visibility: 7 miles (11 km)
Ceiling: at least 12,000 feet AGL
Clouds: sky clear below 12,000 feet AGL
Present Weather: automated observation with no human augmentation;
there may or may not be significant weather present at this time
KPZQ 301435Z AUTO 22004KT 7SM CLR 15/07 A3038 RMK AO2 T01470074

Conditions at: KPZQ observed 30 September 2022  14:15 UTC
Temperature: 13.7°C (57°F)
Dewpoint: 7.1°C (45°F) [RH = 64%]
Pressure (altimeter): 30.38 inches Hg (1028.9 mb)
Winds: from the WSW (250 degrees) at 5 MPH (4 knots; 2.1 m/s)
Visibility: 10 or more miles (16+ km)
Ceiling: at least 12,000 feet AGL
Clouds: sky clear below 12,000 feet AGL
Present Weather: automated observation with no human augmentation;
there may or may not be significant weather present at this time
KPZQ 301415Z AUTO 25004KT 10SM CLR 14/07 A3038 RMK AO2 T01370071

Conditions at: KPZQ observed 30 September 2022  13:55 UTC
Temperature: 12.7°C (55°F)
Dewpoint: 6.9°C (44°F) [RH = 68%]
Pressure (altimeter): 30.38 inches Hg (1028.9 mb)
Winds: from the SW (230 degrees) at 7 MPH (6 knots; 3.1 m/s)
Visibility: 10 or more miles (16+ km)
Ceiling: at least 12,000 feet AGL
Clouds: sky clear below 12,000 feet AGL
Present Weather: automated observation with no human augmentation;
there may or may not be significant weather present at this time
KPZQ 301355Z AUTO 23006KT 10SM CLR 13/07 A3038 RMK AO2 T01270069

Conditions at: KPZQ observed 30 September 2022  13:35 UTC
Temperature: 11.5°C (53°F)
Dewpoint: 6.4°C (44°F) [RH = 71%]
Pressure (altimeter): 30.38 inches Hg (1028.9 mb)
Winds: from the WSW (240 degrees) at 6 MPH (5 knots; 2.6 m/s)
Visibility: 10 or more miles (16+ km)
Ceiling: at least 12,000 feet AGL
Clouds: sky clear below 12,000 feet AGL
Present Weather: automated observation with no human augmentation;
there may or may not be significant weather present at this time
KPZQ 301335Z AUTO 24005KT 10SM CLR 12/06 A3038 RMK AO2 T01150064

Conditions at: KPZQ observed 30 September 2022  13:15 UTC
Temperature: 10.1°C (50°F)
Dewpoint: 5.9°C (43°F) [RH = 75%]
Pressure (altimeter): 30.39 inches Hg (1029.2 mb)
Winds: from the WSW (240 degrees) at 5 MPH (4 knots; 2.1 m/s)
Visibility: 10 or more miles (16+ km)
Ceiling: at least 12,000 feet AGL
Clouds: sky clear below 12,000 feet AGL
Present Weather: automated observation with no human augmentation;
there may or may not be significant weather present at this time
KPZQ 301315Z AUTO 24004KT 10SM CLR 10/06 A3039 RMK AO2 T01010059

Conditions at: KPZQ observed 30 September 2022  12:55 UTC
Temperature: 8.8°C (48°F)
Dewpoint: 5.2°C (41°F) [RH = 78%]
Pressure (altimeter): 30.39 inches Hg (1029.2 mb)
Winds: from the WSW (250 degrees) at 6 MPH (5 knots; 2.6 m/s)
Visibility: 10 or more miles (16+ km)
Ceiling: at least 12,000 feet AGL
Clouds: sky clear below 12,000 feet AGL
Present Weather: automated observation with no human augmentation;
there may or may not be significant weather present at this time
KPZQ 301255Z AUTO 25005KT 10SM CLR 09/05 A3039 RMK AO2 T00880052

Conditions at: KPZQ observed 30 September 2022  12:35 UTC
Temperature: 7.7°C (46°F)
Dewpoint: 4.7°C (40°F) [RH = 81%]
Pressure (altimeter): 30.39 inches Hg (1029.2 mb)
Winds: from the WSW (240 degrees) at 5 MPH (4 knots; 2.1 m/s)
Visibility: 10 or more miles (16+ km)
Ceiling: at least 12,000 feet AGL
Clouds: sky clear below 12,000 feet AGL
Present Weather: automated observation with no human augmentation;
there may or may not be significant weather present at this time
KPZQ 301235Z AUTO 24004KT 10SM CLR 08/05 A3039 RMK AO2 T00770047

Conditions at: KPZQ observed 30 September 2022  12:15 UTC
Temperature: 6.6°C (44°F)
Dewpoint: 4.1°C (39°F) [RH = 84%]
Pressure (altimeter): 30.39 inches Hg (1029.2 mb)
Winds: from the WSW (240 degrees) at 5 MPH (4 knots; 2.1 m/s)
Visibility: 10 or more miles (16+ km)
Ceiling: at least 12,000 feet AGL
Clouds: sky clear below 12,000 feet AGL
Present Weather: automated observation with no human augmentation;
there may or may not be significant weather present at this time
KPZQ 301215Z AUTO 24004KT 10SM CLR 07/04 A3039 RMK AO2 T00660041

Conditions at: KPZQ observed 30 September 2022  11:55 UTC
Temperature: 5.7°C (42°F)
Dewpoint: 3.5°C (38°F) [RH = 86%]
Pressure (altimeter): 30.38 inches Hg (1028.9 mb)
Winds: from the SW (230 degrees) at 5 MPH (4 knots; 2.1 m/s)
Visibility: 10 or more miles (16+ km)
Ceiling: at least 12,000 feet AGL
Clouds: sky clear below 12,000 feet AGL
Present Weather: automated observation with no human augmentation;
there may or may not be significant weather present at this time
KPZQ 301155Z AUTO 23004KT 10SM CLR 06/04 A3038 RMK AO2 T00570035 10070 20050

Conditions at: KPZQ observed 30 September 2022  11:35 UTC
Temperature: 5.2°C (41°F)
Dewpoint: 3.3°C (38°F) [RH = 88%]
Pressure (altimeter): 30.38 inches Hg (1028.9 mb)
Winds: from the WSW (240 degrees) at 5 MPH (4 knots; 2.1 m/s)
Visibility: 10 or more miles (16+ km)
Ceiling: at least 12,000 feet AGL
Clouds: sky clear below 12,000 feet AGL
Present Weather: automated observation with no human augmentation;
there may or may not be significant weather present at this time
KPZQ 301135Z AUTO 24004KT 10SM CLR 05/03 A3038 RMK AO2 T00520033

Conditions at: KPZQ observed 30 September 2022  11:15 UTC
Temperature: 5.5°C (42°F)
Dewpoint: 3.4°C (38°F) [RH = 86%]
Pressure (altimeter): 30.38 inches Hg (1028.9 mb)
Winds: from the WSW (240 degrees) at 5 MPH (4 knots; 2.1 m/s)
Visibility: 10 or more miles (16+ km)
Ceiling: at least 12,000 feet AGL
Clouds: sky clear below 12,000 feet AGL
Present Weather: automated observation with no human augmentation;
there may or may not be significant weather present at this time
KPZQ 301115Z AUTO 24004KT 10SM CLR 06/03 A3038 RMK AO2 T00550034

Conditions at: KPZQ observed 30 September 2022  10:55 UTC
Temperature: 5.5°C (42°F)
Dewpoint: 3.5°C (38°F) [RH = 87%]
Pressure (altimeter): 30.38 inches Hg (1028.9 mb)
Winds: from the WSW (240 degrees) at 3 MPH (3 knots; 1.6 m/s)
Visibility: 10 or more miles (16+ km)
Ceiling: at least 12,000 feet AGL
Clouds: sky clear below 12,000 feet AGL
Present Weather: automated observation with no human augmentation;
there may or may not be significant weather present at this time
KPZQ 301055Z AUTO 24003KT 10SM CLR 06/04 A3038 RMK AO2 T00550035

Conditions at: KPZQ observed 30 September 2022  10:35 UTC
Temperature: 5.2°C (41°F)
Dewpoint: 3.4°C (38°F) [RH = 88%]
Pressure (altimeter): 30.38 inches Hg (1028.9 mb)
Winds: from the WSW (240 degrees) at 3 MPH (3 knots; 1.6 m/s)
Visibility: 10 or more miles (16+ km)
Ceiling: at least 12,000 feet AGL
Clouds: sky clear below 12,000 feet AGL
Present Weather: automated observation with no human augmentation;
there may or may not be significant weather present at this time
KPZQ 301035Z AUTO 24003KT 10SM CLR 05/03 A3038 RMK AO2 T00520034

Conditions at: KPZQ observed 30 September 2022  10:15 UTC
Temperature: 5.4°C (42°F)
Dewpoint: 3.5°C (38°F) [RH = 88%]
Pressure (altimeter): 30.38 inches Hg (1028.9 mb)
Winds: from the SW (220 degrees) at 3 MPH (3 knots; 1.6 m/s)
Visibility: 10 or more miles (16+ km)
Ceiling: at least 12,000 feet AGL
Clouds: sky clear below 12,000 feet AGL
Present Weather: automated observation with no human augmentation;
there may or may not be significant weather present at this time
KPZQ 301015Z AUTO 22003KT 10SM CLR 05/04 A3038 RMK AO2 T00540035

Conditions at: KPZQ observed 30 September 2022  09:55 UTC
Temperature: 5.1°C (41°F)
Dewpoint: 3.2°C (38°F) [RH = 88%]
Pressure (altimeter): 30.38 inches Hg (1028.9 mb)
Winds: calm
Visibility: 10 or more miles (16+ km)
Ceiling: at least 12,000 feet AGL
Clouds: sky clear below 12,000 feet AGL
Present Weather: automated observation with no human augmentation;
there may or may not be significant weather present at this time
KPZQ 300955Z AUTO 00000KT 10SM CLR 05/03 A3038 RMK AO2 T00510032

Conditions at: KPZQ observed 30 September 2022  09:35 UTC
Temperature: 5.5°C (42°F)
Dewpoint: 3.7°C (39°F) [RH = 88%]
Pressure (altimeter): 30.37 inches Hg (1028.5 mb)
Winds: from the WSW (240 degrees) at 3 MPH (3 knots; 1.6 m/s)
Visibility: 10 or more miles (16+ km)
Ceiling: at least 12,000 feet AGL
Clouds: sky clear below 12,000 feet AGL
Present Weather: automated observation with no human augmentation;
there may or may not be significant weather present at this time
KPZQ 300935Z AUTO 24003KT 10SM CLR 06/04 A3037 RMK AO2 T00550037

Conditions at: KPZQ observed 30 September 2022  09:15 UTC
Temperature: 6.1°C (43°F)
Dewpoint: 4.2°C (40°F) [RH = 88%]
Pressure (altimeter): 30.37 inches Hg (1028.5 mb)
Winds: from the SW (230 degrees) at 3 MPH (3 knots; 1.6 m/s)
Visibility: 10 or more miles (16+ km)
Ceiling: at least 12,000 feet AGL
Clouds: sky clear below 12,000 feet AGL
Present Weather: automated observation with no human augmentation;
there may or may not be significant weather present at this time
KPZQ 300915Z AUTO 23003KT 10SM CLR 06/04 A3037 RMK AO2 T00610042

Conditions at: KPZQ observed 30 September 2022  08:55 UTC
Temperature: 6.5°C (44°F)
Dewpoint: 4.8°C (41°F) [RH = 89%]
Pressure (altimeter): 30.36 inches Hg (1028.2 mb)
Winds: from the SW (220 degrees) at 6 MPH (5 knots; 2.6 m/s)
Visibility: 10 or more miles (16+ km)
Ceiling: at least 12,000 feet AGL
Clouds: sky clear below 12,000 feet AGL
Present Weather: automated observation with no human augmentation;
there may or may not be significant weather present at this time
KPZQ 300855Z AUTO 22005KT 10SM CLR 07/05 A3036 RMK AO2 T00650048

Conditions at: KPZQ observed 30 September 2022  08:35 UTC
Temperature: 6.8°C (44°F)
Dewpoint: 5.2°C (41°F) [RH = 90%]
Pressure (altimeter): 30.36 inches Hg (1028.2 mb)
Winds: from the SSW (210 degrees) at 6 MPH (5 knots; 2.6 m/s)
Visibility: 10 or more miles (16+ km)
Ceiling: at least 12,000 feet AGL
Clouds: sky clear below 12,000 feet AGL
Present Weather: automated observation with no human augmentation;
there may or may not be significant weather present at this time
KPZQ 300835Z AUTO 21005KT 10SM CLR 07/05 A3036 RMK AO2 T00680052

Conditions at: KPZQ observed 30 September 2022  08:15 UTC
Temperature: 7.0°C (45°F)
Dewpoint: 5.4°C (42°F) [RH = 90%]
Pressure (altimeter): 30.36 inches Hg (1028.2 mb)
Winds: from the SW (220 degrees) at 7 MPH (6 knots; 3.1 m/s)
Visibility: 10 or more miles (16+ km)
Ceiling: at least 12,000 feet AGL
Clouds: sky clear below 12,000 feet AGL
Present Weather: automated observation with no human augmentation;
there may or may not be significant weather present at this time
KPZQ 300815Z AUTO 22006KT 10SM CLR 07/05 A3036 RMK AO2 T00700054

Conditions at: KPZQ observed 30 September 2022  07:55 UTC
Temperature: 6.7°C (44°F)
Dewpoint: 5.2°C (41°F) [RH = 90%]
Pressure (altimeter): 30.36 inches Hg (1028.2 mb)
Winds: from the SSW (210 degrees) at 6 MPH (5 knots; 2.6 m/s)
Visibility: 10 or more miles (16+ km)
Ceiling: at least 12,000 feet AGL
Clouds: sky clear below 12,000 feet AGL
Present Weather: automated observation with no human augmentation;
there may or may not be significant weather present at this time
KPZQ 300755Z AUTO 21005KT 10SM CLR 07/05 A3036 RMK AO2 T00670052

Conditions at: KPZQ observed 30 September 2022  07:35 UTC
Temperature: 6.8°C (44°F)
Dewpoint: 5.4°C (42°F) [RH = 91%]
Pressure (altimeter): 30.37 inches Hg (1028.5 mb)
Winds: from the SW (220 degrees) at 6 MPH (5 knots; 2.6 m/s)
Visibility: 10 or more miles (16+ km)
Ceiling: at least 12,000 feet AGL
Clouds: sky clear below 12,000 feet AGL
Present Weather: automated observation with no human augmentation;
there may or may not be significant weather present at this time
KPZQ 300735Z AUTO 22005KT 10SM CLR 07/05 A3037 RMK AO2 T00680054

Conditions at: KPZQ observed 30 September 2022  07:15 UTC
Temperature: 6.4°C (44°F)
Dewpoint: 5.0°C (41°F) [RH = 91%]
Pressure (altimeter): 30.37 inches Hg (1028.5 mb)
Winds: from the SW (230 degrees) at 6 MPH (5 knots; 2.6 m/s)
Visibility: 10 or more miles (16+ km)
Ceiling: at least 12,000 feet AGL
Clouds: sky clear below 12,000 feet AGL
Present Weather: automated observation with no human augmentation;
there may or may not be significant weather present at this time
KPZQ 300715Z AUTO 23005KT 10SM CLR 06/05 A3037 RMK AO2 T00640050

Conditions at: KPZQ observed 30 September 2022  06:55 UTC
Temperature: 6.3°C (43°F)
Dewpoint: 4.8°C (41°F) [RH = 90%]
Pressure (altimeter): 30.38 inches Hg (1028.9 mb)
Winds: from the WSW (240 degrees) at 6 MPH (5 knots; 2.6 m/s)
Visibility: 10 or more miles (16+ km)
Ceiling: at least 12,000 feet AGL
Clouds: sky clear below 12,000 feet AGL
Present Weather: automated observation with no human augmentation;
there may or may not be significant weather present at this time
KPZQ 300655Z AUTO 24005KT 10SM CLR 06/05 A3038 RMK AO2 T00630048

Conditions at: KPZQ observed 30 September 2022  06:35 UTC
Temperature: 6.6°C (44°F)
Dewpoint: 5.0°C (41°F) [RH = 89%]
Pressure (altimeter): 30.38 inches Hg (1028.9 mb)
Winds: from the SW (230 degrees) at 6 MPH (5 knots; 2.6 m/s)
Visibility: 10 or more miles (16+ km)
Ceiling: at least 12,000 feet AGL
Clouds: sky clear below 12,000 feet AGL
Present Weather: automated observation with no human augmentation;
there may or may not be significant weather present at this time
KPZQ 300635Z AUTO 23005KT 10SM CLR 07/05 A3038 RMK AO2 T00660050

Conditions at: KPZQ observed 30 September 2022  06:15 UTC
Temperature: 6.8°C (44°F)
Dewpoint: 5.0°C (41°F) [RH = 88%]
Pressure (altimeter): 30.38 inches Hg (1028.9 mb)
Winds: from the SW (220 degrees) at 6 MPH (5 knots; 2.6 m/s)
Visibility: 10 or more miles (16+ km)
Ceiling: at least 12,000 feet AGL
Clouds: sky clear below 12,000 feet AGL
Present Weather: automated observation with no human augmentation;
there may or may not be significant weather present at this time
KPZQ 300615Z AUTO 22005KT 10SM CLR 07/05 A3038 RMK AO2 T00680050

Conditions at: KPZQ observed 30 September 2022  05:55 UTC
Temperature: 7.0°C (45°F)
Dewpoint: 5.0°C (41°F) [RH = 87%]
Pressure (altimeter): 30.38 inches Hg (1028.9 mb)
Winds: from the SW (220 degrees) at 6 MPH (5 knots; 2.6 m/s)
Visibility: 10 or more miles (16+ km)
Ceiling: at least 12,000 feet AGL
Clouds: sky clear below 12,000 feet AGL
Present Weather: automated observation with no human augmentation;
there may or may not be significant weather present at this time
KPZQ 300555Z AUTO 22005KT 10SM CLR 07/05 A3038 RMK AO2 T00700050 10116 20070

Conditions at: KPZQ observed 30 September 2022  05:35 UTC
Temperature: 7.0°C (45°F)
Dewpoint: 4.8°C (41°F) [RH = 86%]
Pressure (altimeter): 30.38 inches Hg (1028.9 mb)
Winds: from the SW (220 degrees) at 5 MPH (4 knots; 2.1 m/s)
Visibility: 10 or more miles (16+ km)
Ceiling: at least 12,000 feet AGL
Clouds: sky clear below 12,000 feet AGL
Present Weather: automated observation with no human augmentation;
there may or may not be significant weather present at this time
KPZQ 300535Z AUTO 22004KT 10SM CLR 07/05 A3038 RMK AO2 T00700048

Conditions at: KPZQ observed 30 September 2022  05:15 UTC
Temperature: 7.5°C (46°F)
Dewpoint: 5.2°C (41°F) [RH = 85%]
Pressure (altimeter): 30.38 inches Hg (1028.9 mb)
Winds: from the SSW (200 degrees) at 6 MPH (5 knots; 2.6 m/s)
Visibility: 10 or more miles (16+ km)
Ceiling: at least 12,000 feet AGL
Clouds: sky clear below 12,000 feet AGL
Present Weather: automated observation with no human augmentation;
there may or may not be significant weather present at this time
KPZQ 300515Z AUTO 20005KT 10SM CLR 08/05 A3038 RMK AO2 T00750052

Conditions at: KPZQ observed 30 September 2022  04:55 UTC
Temperature: 7.9°C (46°F)
Dewpoint: 5.5°C (42°F) [RH = 85%]
Pressure (altimeter): 30.39 inches Hg (1029.2 mb)
Winds: from the S (180 degrees) at 7 MPH (6 knots; 3.1 m/s)
Visibility: 10 or more miles (16+ km)
Ceiling: at least 12,000 feet AGL
Clouds: sky clear below 12,000 feet AGL
Present Weather: automated observation with no human augmentation;
there may or may not be significant weather present at this time
KPZQ 300455Z AUTO 18006KT 10SM CLR 08/06 A3039 RMK AO2 T00790055

Conditions at: KPZQ observed 30 September 2022  04:35 UTC
Temperature: 8.0°C (46°F)
Dewpoint: 5.6°C (42°F) [RH = 85%]
Pressure (altimeter): 30.39 inches Hg (1029.2 mb)
Winds: from the SSE (160 degrees) at 3 MPH (3 knots; 1.6 m/s)
Visibility: 10 or more miles (16+ km)
Ceiling: at least 12,000 feet AGL
Clouds: sky clear below 12,000 feet AGL
Present Weather: automated observation with no human augmentation;
there may or may not be significant weather present at this time
KPZQ 300435Z AUTO 16003KT 10SM CLR 08/06 A3039 RMK AO2 T00800056

Conditions at: KPZQ observed 30 September 2022  04:15 UTC
Temperature: 8.2°C (47°F)
Dewpoint: 5.6°C (42°F) [RH = 84%]
Pressure (altimeter): 30.39 inches Hg (1029.2 mb)
Winds: from the SSE (150 degrees) at 3 MPH (3 knots; 1.6 m/s)
Visibility: 10 or more miles (16+ km)
Ceiling: at least 12,000 feet AGL
Clouds: sky clear below 12,000 feet AGL
Present Weather: automated observation with no human augmentation;
there may or may not be significant weather present at this time
KPZQ 300415Z AUTO 15003KT 10SM CLR 08/06 A3039 RMK AO2 T00820056